createdAt,value
2019-04-11T00:01:51.611Z,2.30
2019-04-11T00:04:18.530Z,2.37
2019-04-11T00:06:47.885Z,2.57
2019-04-11T00:09:17.233Z,2.10
2019-04-11T00:11:46.202Z,2.50
2019-04-11T00:14:15.818Z,2.90
2019-04-11T00:16:45.416Z,2.33
2019-04-11T00:19:14.096Z,2.30
2019-04-11T00:21:42.483Z,2.07
2019-04-11T00:24:10.872Z,2.30
2019-04-11T00:26:40.314Z,2.27
2019-04-11T00:29:08.758Z,2.83
2019-04-11T00:31:37.144Z,2.70
2019-04-11T00:34:06.725Z,2.60
2019-04-11T00:36:36.662Z,2.03
2019-04-11T00:39:08.104Z,2.00
2019-04-11T00:41:37.655Z,2.37
2019-04-11T00:44:06.371Z,2.47
2019-04-11T00:46:34.812Z,2.30
2019-04-11T00:49:03.269Z,2.60
2019-04-11T00:51:31.934Z,6.00
2019-04-11T00:54:00.639Z,6.70
2019-04-11T00:56:30.377Z,8.33
2019-04-11T00:58:58.906Z,8.37
2019-04-11T01:01:28.134Z,12.47
2019-04-11T01:03:56.799Z,17.33
2019-04-11T01:06:25.879Z,11.47
2019-04-11T01:08:55.718Z,13.93
2019-04-11T01:11:24.283Z,15.80
2019-04-11T01:13:55.315Z,20.87
2019-04-11T01:16:43.021Z,19.40
2019-04-11T01:19:11.439Z,28.30
2019-04-11T01:21:40.412Z,22.57
2019-04-11T01:24:09.303Z,15.07
2019-04-11T01:26:37.742Z,15.67
2019-04-11T01:29:07.147Z,17.77
2019-04-11T01:31:37.855Z,15.57
2019-04-11T01:34:06.569Z,14.37
2019-04-11T01:36:35.334Z,14.20
2019-04-11T01:39:06.800Z,14.13
2019-04-11T01:41:36.341Z,14.30
2019-04-11T01:44:07.098Z,12.50
2019-04-11T01:46:35.003Z,12.93
2019-04-11T01:49:08.162Z,12.17
2019-04-11T01:51:36.603Z,12.30
2019-04-11T01:54:05.732Z,12.53
2019-04-11T01:56:34.243Z,12.20
2019-04-11T01:59:02.875Z,11.63
2019-04-11T02:01:41.765Z,11.30
2019-04-11T02:04:17.980Z,11.20
2019-04-11T02:06:46.390Z,11.50
2019-04-11T02:09:15.839Z,11.60
2019-04-11T02:11:44.402Z,11.37
2019-04-11T02:14:16.455Z,11.60
2019-04-11T02:16:45.274Z,11.03
2019-04-11T02:19:14.173Z,10.43
2019-04-11T02:21:44.112Z,10.83
2019-04-11T02:24:26.324Z,11.00
2019-04-11T02:27:03.000Z,11.87
2019-04-11T02:29:31.613Z,10.33
2019-04-11T02:32:04.750Z,10.23
2019-04-11T02:34:31.206Z,10.27
2019-04-11T02:37:01.834Z,10.37
2019-04-11T02:39:32.896Z,10.73
2019-04-11T02:42:01.452Z,9.93
2019-04-11T02:44:45.519Z,10.23
2019-04-11T02:47:08.163Z,10.47
2019-04-11T02:49:31.182Z,9.50
2019-04-11T02:52:00.797Z,9.37
2019-04-11T02:54:30.582Z,10.50
2019-04-11T02:57:00.458Z,9.77
2019-04-11T02:59:30.306Z,9.90
2019-04-11T03:02:00.441Z,10.20
2019-04-11T03:04:30.929Z,9.37
2019-04-11T03:07:00.419Z,9.23
2019-04-11T03:09:29.226Z,9.43
2019-04-11T03:11:59.075Z,9.67
2019-04-11T03:14:44.638Z,9.27
2019-04-11T03:17:09.352Z,9.43
2019-04-11T03:19:42.561Z,9.70
2019-04-11T03:21:59.351Z,9.53
2019-04-11T03:24:30.854Z,9.63
2019-04-11T03:27:02.771Z,9.43
2019-04-11T03:29:30.878Z,9.20
2019-04-11T03:37:24.005Z,9.13
2019-04-11T03:39:50.672Z,9.10
2019-04-11T03:42:17.250Z,9.30
2019-04-11T03:44:36.872Z,8.60
2019-04-11T03:47:16.653Z,8.80
2019-04-11T03:49:39.908Z,8.37
2019-04-11T03:52:01.198Z,8.80
2019-04-11T03:54:31.688Z,8.33
2019-04-11T03:57:01.232Z,8.13
2019-04-11T03:59:31.451Z,8.57
2019-04-11T04:02:00.134Z,7.73
2019-04-11T04:04:29.141Z,8.13
2019-04-11T04:06:58.499Z,7.83
2019-04-11T04:09:29.144Z,8.23
2019-04-11T04:11:59.016Z,8.10
2019-04-11T04:14:29.121Z,8.10
2019-04-11T04:17:06.878Z,7.87
2019-04-11T04:19:43.722Z,8.37
2019-04-11T04:22:15.796Z,7.63
2019-04-11T04:24:45.528Z,7.57
2019-04-11T04:27:15.443Z,7.70
2019-04-11T04:29:47.347Z,7.33
2019-04-11T04:32:14.357Z,7.87
2019-04-11T04:34:44.387Z,7.33
2019-04-11T04:37:14.105Z,7.63
2019-04-11T04:39:43.670Z,7.37
2019-04-11T04:42:23.577Z,6.97
2019-04-11T04:44:42.863Z,7.67
2019-04-11T04:47:21.161Z,7.97
2019-04-11T04:49:43.654Z,6.90
2019-04-11T04:52:14.301Z,7.97
2019-04-11T04:54:44.173Z,7.17
2019-04-11T04:57:13.210Z,7.73
2019-04-11T04:59:42.546Z,7.03
2019-04-11T05:02:12.883Z,6.70
2019-04-11T05:04:41.227Z,6.67
2019-04-11T05:07:10.359Z,6.50
2019-04-11T05:09:40.456Z,6.10
2019-04-11T05:12:09.869Z,6.10
2019-04-11T05:14:39.307Z,5.87
2019-04-11T05:17:08.785Z,6.17
2019-04-11T05:19:38.371Z,6.03
2019-04-11T05:22:06.847Z,6.03
2019-04-11T05:24:35.236Z,5.90
2019-04-11T05:27:04.153Z,6.20
2019-04-11T05:29:33.531Z,5.53
2019-04-11T05:32:03.027Z,5.20
2019-04-11T05:34:31.603Z,6.13
2019-04-11T05:37:00.337Z,5.40
2019-04-11T05:39:28.695Z,5.40
2019-04-11T05:41:57.099Z,5.33
2019-04-11T05:44:25.473Z,5.20
2019-04-11T05:46:58.941Z,5.03
2019-04-11T05:49:36.611Z,5.27
2019-04-11T05:52:06.130Z,4.77
2019-04-11T05:54:38.693Z,4.90
2019-04-11T05:57:07.011Z,4.93
2019-04-11T05:59:36.683Z,4.93
2019-04-11T06:02:13.008Z,4.90
2019-04-11T06:04:48.893Z,4.60
2019-04-11T06:07:32.694Z,4.40
2019-04-11T06:10:06.040Z,4.40
2019-04-11T06:12:41.390Z,5.00
2019-04-11T06:15:19.638Z,4.90
2019-04-11T06:17:48.858Z,4.80
2019-04-11T06:20:37.597Z,5.10
2019-04-11T06:23:24.059Z,4.17
2019-04-11T06:25:55.435Z,4.93
2019-04-11T06:28:28.849Z,4.50
2019-04-11T06:31:05.970Z,4.93
2019-04-11T06:33:36.518Z,4.70
2019-04-11T06:36:06.592Z,4.47
2019-04-11T06:38:45.629Z,4.43
2019-04-11T06:41:32.770Z,4.37
2019-04-11T06:44:02.934Z,4.47
2019-04-11T06:46:54.521Z,4.10
2019-04-11T06:49:24.641Z,4.13
2019-04-11T06:51:57.844Z,4.17
2019-04-11T06:54:41.119Z,4.13
2019-04-11T06:57:18.059Z,4.40
2019-04-11T06:59:48.443Z,4.23
2019-04-11T07:02:20.222Z,4.00
2019-04-11T07:04:49.617Z,4.30
2019-04-11T07:07:18.579Z,4.20
2019-04-11T07:09:51.547Z,4.40
2019-04-11T07:12:24.524Z,4.10
2019-04-11T07:14:55.122Z,4.30
2019-04-11T07:17:41.397Z,4.33
2019-04-11T07:20:27.272Z,3.73
2019-04-11T07:23:13.662Z,4.30
2019-04-11T07:25:43.807Z,4.10
2019-04-11T07:28:29.464Z,3.77
2019-04-11T07:31:16.184Z,4.07
2019-04-11T07:33:56.192Z,3.70
2019-04-11T07:36:38.550Z,3.87
2019-04-11T07:39:12.920Z,3.90
2019-04-11T07:41:45.315Z,4.20
2019-04-11T07:44:21.823Z,3.73
2019-04-11T07:46:52.017Z,4.00
2019-04-11T07:49:31.092Z,4.23
2019-04-11T07:52:02.393Z,3.83
2019-04-11T07:54:30.914Z,4.00
2019-04-11T07:57:01.603Z,3.47
2019-04-11T07:59:31.763Z,3.47
2019-04-11T08:02:05.709Z,4.03
2019-04-11T08:04:51.893Z,4.17
2019-04-11T08:07:38.135Z,3.70
2019-04-11T08:10:18.254Z,4.00
2019-04-11T08:12:48.144Z,3.80
2019-04-11T08:15:34.179Z,3.70
2019-04-11T08:18:10.349Z,4.20
2019-04-11T08:20:57.422Z,4.10
2019-04-11T08:23:26.385Z,3.73
2019-04-11T08:26:09.533Z,3.87
2019-04-11T08:28:38.236Z,3.80
2019-04-11T08:31:13.746Z,3.60
2019-04-11T08:33:42.571Z,3.70
2019-04-11T08:36:26.024Z,4.20
2019-04-11T08:38:54.585Z,3.50
2019-04-11T08:41:27.513Z,3.63
2019-04-11T08:43:56.248Z,3.53
2019-04-11T08:46:26.886Z,3.70
2019-04-11T08:48:57.409Z,3.47
2019-04-11T08:51:27.578Z,4.00
2019-04-11T08:54:07.055Z,3.50
2019-04-11T08:56:37.324Z,3.30
2019-04-11T08:59:13.467Z,3.27
2019-04-11T09:01:42.433Z,4.00
2019-04-11T09:04:30.150Z,3.70
2019-04-11T09:06:59.439Z,3.60
2019-04-11T09:09:33.366Z,3.53
2019-04-11T09:12:04.434Z,3.17
2019-04-11T09:14:50.915Z,3.50
2019-04-11T09:17:23.773Z,3.40
2019-04-11T09:20:10.168Z,3.50
2019-04-11T09:22:42.720Z,3.33
2019-04-11T09:25:30.472Z,3.40
2019-04-11T09:28:06.996Z,3.10
2019-04-11T09:30:37.035Z,3.27
2019-04-11T09:33:07.108Z,3.27
2019-04-11T09:35:43.674Z,3.40
2019-04-11T09:38:13.969Z,3.37
2019-04-11T09:41:00.562Z,3.03
2019-04-11T09:43:31.794Z,3.23
2019-04-11T09:46:14.447Z,3.53
2019-04-11T09:48:48.368Z,3.40
2019-04-11T09:51:26.490Z,3.23
2019-04-11T09:53:59.262Z,3.20
2019-04-11T09:56:41.347Z,3.43
2019-04-11T09:59:17.627Z,3.50
2019-04-11T10:02:03.669Z,3.33
2019-04-11T10:04:33.958Z,3.80
2019-04-11T10:07:21.618Z,3.30
2019-04-11T10:09:55.395Z,3.60
2019-04-11T10:12:44.646Z,3.80
2019-04-11T10:15:13.571Z,3.67
2019-04-11T10:18:01.013Z,3.40
2019-04-11T10:20:30.720Z,3.23
2019-04-11T10:23:02.011Z,3.43
2019-04-11T10:25:32.778Z,3.30
2019-04-11T10:28:09.228Z,3.60
2019-04-11T10:30:42.051Z,3.40
2019-04-11T10:33:12.982Z,3.20
2019-04-11T10:35:43.336Z,3.67
2019-04-11T10:38:14.387Z,3.33
2019-04-11T10:40:53.067Z,3.37
2019-04-11T10:43:22.443Z,3.23
2019-04-11T10:45:58.855Z,3.50
2019-04-11T10:48:35.606Z,3.80
2019-04-11T10:51:17.255Z,3.53
2019-04-11T10:53:44.769Z,3.20
2019-04-11T10:56:15.985Z,3.30
2019-04-11T10:58:46.072Z,3.47
2019-04-11T11:01:21.963Z,3.60
2019-04-11T11:03:55.516Z,3.30
2019-04-11T11:06:25.620Z,3.70
2019-04-11T11:08:58.565Z,3.47
2019-04-11T11:11:34.678Z,3.67
2019-04-11T11:14:07.731Z,3.40
2019-04-11T11:16:44.401Z,3.57
2019-04-11T11:19:40.944Z,3.37
2019-04-11T11:21:49.973Z,4.00
2019-04-11T11:24:40.188Z,3.57
2019-04-11T11:27:05.719Z,3.53
2019-04-11T11:29:40.145Z,3.50
2019-04-11T11:32:09.253Z,3.80
2019-04-11T11:34:41.313Z,3.40
2019-04-11T11:37:20.768Z,4.03
2019-04-11T11:40:12.866Z,3.90
2019-04-11T11:42:42.165Z,4.00
2019-04-11T11:45:21.519Z,3.73
2019-04-11T11:48:09.948Z,3.87
2019-04-11T11:50:34.927Z,3.80
2019-04-11T11:53:25.877Z,4.17
2019-04-11T11:55:54.183Z,4.10
2019-04-11T11:58:27.906Z,3.80
2019-04-11T12:01:01.141Z,4.10
2019-04-11T12:03:40.487Z,4.13
2019-04-11T12:06:09.706Z,3.80
2019-04-11T12:08:56.249Z,3.80
2019-04-11T12:11:26.259Z,3.93
2019-04-11T12:14:14.524Z,4.03
2019-04-11T12:17:04.733Z,3.87
2019-04-11T12:19:52.326Z,4.10
2019-04-11T12:22:13.146Z,3.97
2019-04-11T12:24:54.921Z,4.43
2019-04-11T12:27:35.135Z,4.10
2019-04-11T12:30:20.861Z,3.87
2019-04-11T12:32:59.227Z,3.77
2019-04-11T12:35:48.641Z,4.27
2019-04-11T12:38:24.516Z,3.87
2019-04-11T12:41:11.583Z,4.00
2019-04-11T12:43:41.612Z,4.00
2019-04-11T12:46:30.169Z,3.80
2019-04-11T12:49:14.661Z,4.20
2019-04-11T12:52:00.916Z,4.10
2019-04-11T12:54:30.956Z,4.10
2019-04-11T12:57:07.035Z,4.10
2019-04-11T12:59:35.440Z,3.97
2019-04-11T13:02:22.079Z,4.13
2019-04-11T13:04:50.499Z,3.93
2019-04-11T13:07:23.501Z,4.07
2019-04-11T13:09:53.885Z,4.23
2019-04-11T13:12:39.066Z,3.80
2019-04-11T13:15:14.858Z,3.90
2019-04-11T13:17:44.878Z,4.20
2019-04-11T13:20:29.876Z,4.10
2019-04-11T13:23:02.364Z,4.37
2019-04-11T13:25:50.352Z,4.97
2019-04-11T13:28:18.735Z,5.73
2019-04-11T13:30:48.763Z,7.00
2019-04-11T13:33:18.802Z,7.60
2019-04-11T13:35:54.678Z,8.50
2019-04-11T13:38:27.516Z,9.67
2019-04-11T13:40:57.568Z,10.20
2019-04-11T13:43:27.602Z,12.30
2019-04-11T13:46:03.374Z,11.83
2019-04-11T13:48:48.541Z,14.53
2019-04-11T13:51:18.682Z,14.00
2019-04-11T13:54:04.642Z,14.90
2019-04-11T13:56:37.633Z,16.30
2019-04-11T13:59:10.376Z,16.50
2019-04-11T14:01:40.520Z,17.27
2019-04-11T14:04:10.561Z,16.50
2019-04-11T14:06:38.962Z,16.90
2019-04-11T14:09:15.921Z,17.30
2019-04-11T14:11:45.987Z,17.93
2019-04-11T14:14:21.816Z,17.87
2019-04-11T14:16:51.869Z,18.57
2019-04-11T14:19:21.909Z,18.00
2019-04-11T14:21:51.226Z,18.03
2019-04-11T14:24:41.542Z,18.07
2019-04-11T14:27:24.504Z,17.60
2019-04-11T14:30:12.806Z,18.90
2019-04-11T14:32:45.570Z,19.20
2019-04-11T14:35:19.107Z,20.20
2019-04-11T14:37:49.192Z,20.80
2019-04-11T14:40:25.245Z,21.30
2019-04-11T14:43:04.110Z,19.20
2019-04-11T14:45:43.061Z,18.97
2019-04-11T14:48:12.977Z,19.47
2019-04-11T14:50:44.947Z,19.03
2019-04-11T14:53:31.251Z,18.23
2019-04-11T14:56:06.776Z,19.17
2019-04-11T14:58:39.569Z,18.57
2019-04-11T15:01:09.611Z,17.90
2019-04-11T15:03:43.738Z,18.57
2019-04-11T15:06:14.757Z,18.00
2019-04-11T15:08:48.158Z,18.00
2019-04-11T15:11:34.522Z,17.40
2019-04-11T15:14:20.827Z,17.43
2019-04-11T15:17:09.067Z,16.83
2019-04-11T15:19:38.343Z,16.60
2019-04-11T15:22:11.645Z,17.30
2019-04-11T15:24:41.689Z,16.87
2019-04-11T15:27:11.728Z,16.90
2019-04-11T15:29:40.191Z,17.20
2019-04-11T15:32:10.224Z,17.30
2019-04-11T15:34:43.077Z,16.87
2019-04-11T15:37:19.391Z,17.50
2019-04-11T15:40:04.559Z,17.50
2019-04-11T15:42:52.541Z,16.93
2019-04-11T15:45:37.922Z,17.23
2019-04-11T15:48:17.786Z,16.90
2019-04-11T15:51:06.611Z,16.87
2019-04-11T15:53:32.290Z,18.17
2019-04-11T15:56:18.480Z,17.37
2019-04-11T15:58:57.520Z,16.47
2019-04-11T16:01:43.873Z,17.27
2019-04-11T16:04:16.632Z,17.57
2019-04-11T16:06:46.680Z,17.80
2019-04-11T16:09:16.052Z,16.93
2019-04-11T16:11:46.086Z,17.40
2019-04-11T16:14:14.494Z,16.87
2019-04-11T16:16:44.553Z,16.87
2019-04-11T16:19:23.439Z,16.73
2019-04-11T16:21:56.225Z,16.73
2019-04-11T16:24:29.048Z,16.33
2019-04-11T16:27:17.678Z,16.77
2019-04-11T16:29:56.773Z,17.00
2019-04-11T16:32:26.806Z,16.03
2019-04-11T16:35:14.928Z,15.83
2019-04-11T16:37:47.659Z,16.47
2019-04-11T16:40:20.848Z,15.40
2019-04-11T16:42:53.587Z,15.57
2019-04-11T16:45:38.953Z,15.70
2019-04-11T16:48:07.355Z,14.73
2019-04-11T16:50:35.785Z,15.63
2019-04-11T16:53:04.181Z,15.10
2019-04-11T16:55:32.628Z,14.17
2019-04-11T16:58:01.042Z,14.77
2019-04-11T17:00:29.477Z,14.93
2019-04-11T17:02:57.896Z,14.70
2019-04-11T17:05:27.013Z,13.27
2019-04-11T17:07:59.903Z,13.63
2019-04-11T17:10:46.291Z,14.47
2019-04-11T17:13:14.864Z,13.80
2019-04-11T17:15:43.367Z,13.67
2019-04-11T17:18:11.769Z,14.30
2019-04-11T17:20:40.201Z,13.70
2019-04-11T17:23:08.613Z,13.90
2019-04-11T17:25:37.033Z,14.47
2019-04-11T17:28:05.430Z,14.03
2019-04-11T17:30:33.866Z,13.33
2019-04-11T17:33:02.269Z,12.90
2019-04-11T17:35:31.728Z,12.07
2019-04-11T17:38:01.093Z,12.37
2019-04-11T17:40:30.893Z,12.67
2019-04-11T17:42:59.290Z,13.27
2019-04-11T17:45:27.683Z,13.00
2019-04-11T17:47:57.251Z,12.40
2019-04-11T17:50:26.156Z,11.57
2019-04-11T17:52:55.272Z,12.60
2019-04-11T17:55:24.497Z,12.03
2019-04-11T17:57:54.925Z,12.20
2019-04-11T18:00:29.721Z,11.97
2019-04-11T18:02:54.922Z,10.97
2019-04-11T18:05:23.326Z,11.70
2019-04-11T18:07:51.731Z,11.43
2019-04-11T18:10:20.175Z,11.63
2019-04-11T18:12:48.642Z,11.70
2019-04-11T18:15:17.039Z,11.50
2019-04-11T18:17:45.537Z,12.00
2019-04-11T18:20:13.955Z,12.47
2019-04-11T18:22:45.795Z,11.93
2019-04-11T18:25:12.800Z,12.53
2019-04-11T18:27:41.225Z,12.83
2019-04-11T18:30:11.037Z,14.17
2019-04-11T18:32:39.912Z,13.17
2019-04-11T18:35:08.337Z,13.60
2019-04-11T18:37:36.777Z,13.90
2019-04-11T18:40:10.195Z,14.20
2019-04-11T18:42:37.001Z,14.60
2019-04-11T18:45:07.491Z,14.47
2019-04-11T18:47:35.948Z,14.50
2019-04-11T18:50:06.472Z,14.83
2019-04-11T18:52:34.991Z,14.30
2019-04-11T18:55:05.026Z,14.13
2019-04-11T18:57:33.523Z,13.97
2019-04-11T19:00:07.064Z,15.03
2019-04-11T19:02:32.756Z,15.13
2019-04-11T19:05:02.302Z,16.17
2019-04-11T19:07:30.775Z,14.80
2019-04-11T19:09:59.181Z,15.43
2019-04-11T19:12:27.591Z,14.70
2019-04-11T19:14:56.004Z,16.27
2019-04-11T19:17:24.429Z,15.80
2019-04-11T19:19:52.851Z,15.90
2019-04-11T19:22:36.803Z,16.30
2019-04-11T19:24:51.389Z,16.50
2019-04-11T19:27:20.561Z,15.37
2019-04-11T19:29:49.078Z,16.53
2019-04-11T19:32:17.546Z,14.97
2019-04-11T19:34:45.961Z,15.63
2019-04-11T19:37:14.396Z,16.40
2019-04-11T19:39:45.159Z,14.60
2019-04-11T19:42:13.040Z,15.20
2019-04-11T19:44:41.488Z,15.73
2019-04-11T19:47:09.916Z,15.57
2019-04-11T19:49:38.314Z,14.73
2019-04-11T19:52:06.841Z,15.17
2019-04-11T19:54:35.311Z,14.80
2019-04-11T19:57:04.853Z,15.70
2019-04-11T19:59:33.244Z,16.00
2019-04-11T20:02:01.678Z,15.30
2019-04-11T20:04:30.081Z,15.43
2019-04-11T20:06:58.497Z,15.40
2019-04-11T20:09:26.900Z,14.50
2019-04-11T20:11:55.357Z,15.13
2019-04-11T20:14:23.824Z,14.50
2019-04-11T20:16:52.228Z,16.40
2019-04-11T20:19:21.627Z,16.17
2019-04-11T20:21:50.051Z,17.13
2019-04-11T20:24:18.524Z,17.57
2019-04-11T20:26:49.771Z,18.17
2019-04-11T20:29:18.889Z,20.17
2019-04-11T20:31:47.334Z,20.93
2019-04-11T20:34:26.851Z,19.70
2019-04-11T20:36:45.871Z,19.50
2019-04-11T20:39:15.226Z,20.43
2019-04-11T20:41:44.435Z,20.53
2019-04-11T20:44:12.861Z,18.20
2019-04-11T20:46:41.252Z,17.33
2019-04-11T20:49:09.650Z,16.10
2019-04-11T20:51:38.051Z,17.00
2019-04-11T20:54:07.362Z,16.37
2019-04-11T20:56:39.906Z,20.17
2019-04-11T20:59:10.060Z,19.77
2019-04-11T21:01:36.584Z,18.47
2019-04-11T21:04:05.202Z,22.63
2019-04-11T21:06:33.598Z,25.30
2019-04-11T21:09:03.170Z,34.93
2019-04-11T21:11:36.203Z,39.07
2019-04-11T21:14:02.327Z,34.83
2019-04-11T21:16:30.720Z,39.60
2019-04-11T21:18:59.163Z,27.50
2019-04-11T21:21:27.639Z,48.47
2019-04-11T21:23:57.947Z,42.23
2019-04-11T21:26:28.753Z,39.47
2019-04-11T21:28:58.747Z,42.97
2019-04-11T21:31:26.449Z,43.47
2019-04-11T21:33:54.884Z,37.90
2019-04-11T21:36:23.279Z,33.43
2019-04-11T21:38:51.711Z,30.40
2019-04-11T21:41:20.299Z,40.47
2019-04-11T21:43:48.730Z,43.10
2019-04-11T21:46:17.127Z,55.50
2019-04-11T21:48:45.638Z,63.63
2019-04-11T21:51:14.085Z,56.13
2019-04-11T21:53:45.136Z,54.73
2019-04-11T21:56:12.679Z,83.40
2019-04-11T21:58:41.085Z,96.07
2019-04-11T22:01:11.935Z,101.83
2019-04-11T22:03:40.341Z,115.00
2019-04-11T22:06:08.802Z,94.33
2019-04-11T22:08:37.209Z,110.57
2019-04-11T22:11:09.859Z,111.10
2019-04-11T22:13:38.015Z,119.57
2019-04-11T22:16:05.901Z,139.33
2019-04-11T22:18:34.304Z,132.13
2019-04-11T22:21:02.708Z,127.20
2019-04-11T22:23:31.114Z,128.17
2019-04-11T22:25:59.521Z,111.57
2019-04-11T22:28:27.945Z,101.17
2019-04-11T22:30:56.341Z,78.90
2019-04-11T22:33:27.741Z,74.00
2019-04-11T22:35:57.051Z,60.03
2019-04-11T22:38:30.729Z,45.07
2019-04-11T22:40:57.126Z,43.97
2019-04-11T22:43:25.545Z,48.90
2019-04-11T22:45:53.964Z,107.03
2019-04-11T22:48:22.494Z,51.70
2019-04-11T22:50:50.922Z,73.50
2019-04-11T22:53:19.347Z,75.07
2019-04-11T22:55:47.808Z,76.47
2019-04-11T22:58:16.233Z,91.23
2019-04-11T23:00:45.817Z,146.53
2019-04-11T23:03:24.810Z,156.20
2019-04-11T23:05:53.216Z,137.63
2019-04-11T23:08:21.664Z,130.27
2019-04-11T23:10:50.057Z,123.27
2019-04-11T23:13:18.495Z,113.50
2019-04-11T23:15:46.891Z,107.33
2019-04-11T23:18:15.336Z,122.10
2019-04-11T23:20:44.056Z,87.17
2019-04-11T23:23:13.989Z,82.37
2019-04-11T23:25:42.521Z,79.83
2019-04-11T23:28:10.935Z,111.93
2019-04-11T23:30:39.330Z,140.50
2019-04-11T23:33:07.750Z,130.00
2019-04-11T23:35:36.233Z,237.10
2019-04-11T23:38:04.637Z,178.73
2019-04-11T23:40:33.099Z,199.87
2019-04-11T23:43:01.500Z,236.47
2019-04-11T23:45:30.390Z,247.80
2019-04-11T23:47:58.791Z,318.50
2019-04-11T23:50:27.226Z,285.67
2019-04-11T23:52:57.859Z,303.27
2019-04-11T23:55:30.047Z,331.13
2019-04-11T23:57:56.064Z,331.43
